sensor_id;sensor_type;location;lat;lon;timestamp;P1;durP1;ratioP1;P2;durP2;ratioP2
24335;SDS011;33098;52.400;16.880;2023-02-10T00:01:40;23.70;;;13.30;;
24335;SDS011;33098;52.400;16.880;2023-02-10T00:04:09;23.30;;;13.40;;
24335;SDS011;33098;52.400;16.880;2023-02-10T00:06:38;22.30;;;13.00;;
24335;SDS011;33098;52.400;16.880;2023-02-10T00:09:07;24.90;;;14.20;;
24335;SDS011;33098;52.400;16.880;2023-02-10T00:11:37;21.10;;;12.70;;
24335;SDS011;33098;52.400;16.880;2023-02-10T00:14:23;25.20;;;13.50;;
24335;SDS011;33098;52.400;16.880;2023-02-10T00:16:53;22.20;;;12.50;;
24335;SDS011;33098;52.400;16.880;2023-02-10T00:19:26;24.50;;;13.50;;
24335;SDS011;33098;52.400;16.880;2023-02-10T00:21:55;21.40;;;12.90;;
24335;SDS011;33098;52.400;16.880;2023-02-10T00:24:28;23.70;;;13.80;;
24335;SDS011;33098;52.400;16.880;2023-02-10T00:26:58;27.00;;;13.60;;
24335;SDS011;33098;52.400;16.880;2023-02-10T00:29:26;23.30;;;12.80;;
24335;SDS011;33098;52.400;16.880;2023-02-10T00:31:55;22.50;;;13.30;;
24335;SDS011;33098;52.400;16.880;2023-02-10T00:34:30;21.20;;;12.30;;
24335;SDS011;33098;52.400;16.880;2023-02-10T00:36:58;22.20;;;11.70;;
24335;SDS011;33098;52.400;16.880;2023-02-10T00:39:25;21.20;;;11.80;;
24335;SDS011;33098;52.400;16.880;2023-02-10T00:42:02;27.00;;;13.30;;
24335;SDS011;33098;52.400;16.880;2023-02-10T00:44:39;22.00;;;13.10;;
24335;SDS011;33098;52.400;16.880;2023-02-10T00:47:08;26.70;;;13.50;;
24335;SDS011;33098;52.400;16.880;2023-02-10T00:49:37;22.70;;;12.90;;
24335;SDS011;33098;52.400;16.880;2023-02-10T00:52:04;24.00;;;13.20;;
24335;SDS011;33098;52.400;16.880;2023-02-10T00:54:31;22.00;;;13.00;;
24335;SDS011;33098;52.400;16.880;2023-02-10T00:57:04;22.10;;;12.50;;
24335;SDS011;33098;52.400;16.880;2023-02-10T00:59:34;23.70;;;13.50;;
24335;SDS011;33098;52.400;16.880;2023-02-10T01:02:01;21.20;;;12.70;;
24335;SDS011;33098;52.400;16.880;2023-02-10T01:04:29;23.90;;;13.40;;
24335;SDS011;33098;52.400;16.880;2023-02-10T01:06:56;22.40;;;13.00;;
24335;SDS011;33098;52.400;16.880;2023-02-10T01:09:22;19.30;;;12.00;;
24335;SDS011;33098;52.400;16.880;2023-02-10T01:11:49;20.60;;;12.60;;
24335;SDS011;33098;52.400;16.880;2023-02-10T01:14:16;22.30;;;13.00;;
24335;SDS011;33098;52.400;16.880;2023-02-10T01:16:47;21.40;;;12.80;;
24335;SDS011;33098;52.400;16.880;2023-02-10T01:19:14;24.00;;;13.10;;
24335;SDS011;33098;52.400;16.880;2023-02-10T01:21:44;21.60;;;12.70;;
24335;SDS011;33098;52.400;16.880;2023-02-10T01:24:31;24.80;;;13.00;;
24335;SDS011;33098;52.400;16.880;2023-02-10T01:27:00;19.90;;;12.40;;
24335;SDS011;33098;52.400;16.880;2023-02-10T01:29:27;21.70;;;12.60;;
24335;SDS011;33098;52.400;16.880;2023-02-10T01:31:55;20.30;;;12.30;;
24335;SDS011;33098;52.400;16.880;2023-02-10T01:34:25;21.20;;;12.50;;
24335;SDS011;33098;52.400;16.880;2023-02-10T01:36:52;20.50;;;12.30;;
24335;SDS011;33098;52.400;16.880;2023-02-10T01:39:22;23.00;;;13.20;;
24335;SDS011;33098;52.400;16.880;2023-02-10T01:41:49;20.00;;;11.40;;
24335;SDS011;33098;52.400;16.880;2023-02-10T01:46:49;22.10;;;13.00;;
24335;SDS011;33098;52.400;16.880;2023-02-10T01:49:16;23.30;;;12.50;;
24335;SDS011;33098;52.400;16.880;2023-02-10T01:51:52;22.50;;;13.80;;
24335;SDS011;33098;52.400;16.880;2023-02-10T01:54:39;25.50;;;13.50;;
24335;SDS011;33098;52.400;16.880;2023-02-10T01:57:13;24.10;;;13.60;;
24335;SDS011;33098;52.400;16.880;2023-02-10T01:59:40;22.00;;;12.50;;
24335;SDS011;33098;52.400;16.880;2023-02-10T02:02:09;21.50;;;13.20;;
24335;SDS011;33098;52.400;16.880;2023-02-10T02:04:57;22.90;;;12.50;;
24335;SDS011;33098;52.400;16.880;2023-02-10T02:07:28;21.80;;;12.90;;
24335;SDS011;33098;52.400;16.880;2023-02-10T02:09:58;25.70;;;13.50;;
24335;SDS011;33098;52.400;16.880;2023-02-10T02:15:46;23.60;;;13.60;;
24335;SDS011;33098;52.400;16.880;2023-02-10T02:18:31;23.80;;;14.20;;
24335;SDS011;33098;52.400;16.880;2023-02-10T02:26:59;25.60;;;13.40;;
24335;SDS011;33098;52.400;16.880;2023-02-10T02:32:22;22.60;;;12.80;;
24335;SDS011;33098;52.400;16.880;2023-02-10T02:37:29;21.30;;;12.10;;
24335;SDS011;33098;52.400;16.880;2023-02-10T02:40:06;23.40;;;13.70;;
24335;SDS011;33098;52.400;16.880;2023-02-10T02:42:38;21.40;;;12.60;;
24335;SDS011;33098;52.400;16.880;2023-02-10T02:45:06;18.70;;;12.20;;
24335;SDS011;33098;52.400;16.880;2023-02-10T02:59:17;21.90;;;12.80;;
24335;SDS011;33098;52.400;16.880;2023-02-10T03:01:56;20.40;;;11.10;;
24335;SDS011;33098;52.400;16.880;2023-02-10T03:04:27;20.00;;;13.50;;
24335;SDS011;33098;52.400;16.880;2023-02-10T03:06:57;18.50;;;12.30;;
24335;SDS011;33098;52.400;16.880;2023-02-10T03:09:27;16.50;;;10.10;;
24335;SDS011;33098;52.400;16.880;2023-02-10T03:11:59;21.80;;;11.70;;
24335;SDS011;33098;52.400;16.880;2023-02-10T03:14:27;22.80;;;12.70;;
24335;SDS011;33098;52.400;16.880;2023-02-10T03:16:56;19.00;;;11.90;;
24335;SDS011;33098;52.400;16.880;2023-02-10T03:19:27;20.00;;;12.50;;
24335;SDS011;33098;52.400;16.880;2023-02-10T03:21:54;19.50;;;11.80;;
24335;SDS011;33098;52.400;16.880;2023-02-10T03:24:21;23.00;;;12.40;;
24335;SDS011;33098;52.400;16.880;2023-02-10T03:26:48;25.20;;;12.10;;
24335;SDS011;33098;52.400;16.880;2023-02-10T03:29:15;17.30;;;11.10;;
24335;SDS011;33098;52.400;16.880;2023-02-10T03:31:42;24.00;;;11.30;;
24335;SDS011;33098;52.400;16.880;2023-02-10T03:34:11;18.80;;;12.00;;
24335;SDS011;33098;52.400;16.880;2023-02-10T03:36:38;22.60;;;11.80;;
24335;SDS011;33098;52.400;16.880;2023-02-10T03:39:08;21.90;;;12.00;;
24335;SDS011;33098;52.400;16.880;2023-02-10T03:41:37;21.80;;;12.30;;
24335;SDS011;33098;52.400;16.880;2023-02-10T03:44:04;20.70;;;12.40;;
24335;SDS011;33098;52.400;16.880;2023-02-10T03:46:30;19.00;;;11.70;;
24335;SDS011;33098;52.400;16.880;2023-02-10T03:48:57;20.80;;;11.50;;
24335;SDS011;33098;52.400;16.880;2023-02-10T03:51:27;19.80;;;11.60;;
24335;SDS011;33098;52.400;16.880;2023-02-10T03:53:56;22.10;;;12.60;;
24335;SDS011;33098;52.400;16.880;2023-02-10T03:56:25;20.10;;;12.50;;
24335;SDS011;33098;52.400;16.880;2023-02-10T03:58:52;22.20;;;13.20;;
24335;SDS011;33098;52.400;16.880;2023-02-10T04:01:18;19.90;;;12.20;;
24335;SDS011;33098;52.400;16.880;2023-02-10T04:03:48;22.00;;;12.50;;
24335;SDS011;33098;52.400;16.880;2023-02-10T04:06:15;21.70;;;12.90;;
24335;SDS011;33098;52.400;16.880;2023-02-10T04:08:45;23.80;;;13.20;;
24335;SDS011;33098;52.400;16.880;2023-02-10T04:11:19;21.00;;;12.50;;
24335;SDS011;33098;52.400;16.880;2023-02-10T04:13:48;21.90;;;13.40;;
24335;SDS011;33098;52.400;16.880;2023-02-10T04:16:16;24.70;;;12.20;;
24335;SDS011;33098;52.400;16.880;2023-02-10T04:18:47;23.20;;;13.10;;
24335;SDS011;33098;52.400;16.880;2023-02-10T04:21:14;22.70;;;12.20;;
24335;SDS011;33098;52.400;16.880;2023-02-10T04:23:46;22.70;;;13.10;;
24335;SDS011;33098;52.400;16.880;2023-02-10T04:26:13;22.20;;;13.20;;
24335;SDS011;33098;52.400;16.880;2023-02-10T04:28:40;23.60;;;13.60;;
24335;SDS011;33098;52.400;16.880;2023-02-10T04:31:07;21.80;;;13.20;;
24335;SDS011;33098;52.400;16.880;2023-02-10T04:33:36;21.20;;;13.20;;
24335;SDS011;33098;52.400;16.880;2023-02-10T04:36:04;25.40;;;14.00;;
24335;SDS011;33098;52.400;16.880;2023-02-10T04:38:35;23.30;;;13.50;;
24335;SDS011;33098;52.400;16.880;2023-02-10T04:41:05;24.60;;;14.30;;
24335;SDS011;33098;52.400;16.880;2023-02-10T04:43:32;23.30;;;13.50;;
24335;SDS011;33098;52.400;16.880;2023-02-10T04:46:04;23.90;;;13.50;;
24335;SDS011;33098;52.400;16.880;2023-02-10T04:48:31;25.50;;;13.60;;
24335;SDS011;33098;52.400;16.880;2023-02-10T04:50:58;24.40;;;13.30;;
24335;SDS011;33098;52.400;16.880;2023-02-10T04:53:25;23.30;;;13.10;;
24335;SDS011;33098;52.400;16.880;2023-02-10T04:55:55;21.10;;;13.20;;
24335;SDS011;33098;52.400;16.880;2023-02-10T04:58:24;21.70;;;13.70;;
24335;SDS011;33098;52.400;16.880;2023-02-10T05:00:54;24.30;;;13.80;;
24335;SDS011;33098;52.400;16.880;2023-02-10T05:03:25;23.90;;;13.50;;
24335;SDS011;33098;52.400;16.880;2023-02-10T05:05:51;22.80;;;13.60;;
24335;SDS011;33098;52.400;16.880;2023-02-10T05:08:19;21.20;;;13.20;;
24335;SDS011;33098;52.400;16.880;2023-02-10T05:10:46;26.10;;;13.90;;
24335;SDS011;33098;52.400;16.880;2023-02-10T05:13:14;25.00;;;14.80;;
24335;SDS011;33098;52.400;16.880;2023-02-10T05:15:41;24.70;;;13.00;;
24335;SDS011;33098;52.400;16.880;2023-02-10T05:18:09;25.90;;;13.60;;
24335;SDS011;33098;52.400;16.880;2023-02-10T05:20:36;20.90;;;12.80;;
24335;SDS011;33098;52.400;16.880;2023-02-10T05:23:03;22.10;;;13.50;;
24335;SDS011;33098;52.400;16.880;2023-02-10T05:25:30;23.50;;;13.30;;
24335;SDS011;33098;52.400;16.880;2023-02-10T05:27:56;22.70;;;14.60;;
24335;SDS011;33098;52.400;16.880;2023-02-10T05:30:23;22.50;;;13.80;;
24335;SDS011;33098;52.400;16.880;2023-02-10T05:32:52;28.20;;;14.20;;
24335;SDS011;33098;52.400;16.880;2023-02-10T05:35:19;22.90;;;13.50;;
24335;SDS011;33098;52.400;16.880;2023-02-10T05:37:50;25.90;;;14.00;;
24335;SDS011;33098;52.400;16.880;2023-02-10T05:40:16;25.30;;;14.10;;
24335;SDS011;33098;52.400;16.880;2023-02-10T05:42:43;24.90;;;14.10;;
24335;SDS011;33098;52.400;16.880;2023-02-10T05:45:13;25.50;;;14.50;;
24335;SDS011;33098;52.400;16.880;2023-02-10T05:47:40;28.00;;;15.10;;
24335;SDS011;33098;52.400;16.880;2023-02-10T05:50:07;26.90;;;14.10;;
24335;SDS011;33098;52.400;16.880;2023-02-10T05:52:40;27.80;;;14.70;;
24335;SDS011;33098;52.400;16.880;2023-02-10T05:55:07;24.00;;;15.30;;
24335;SDS011;33098;52.400;16.880;2023-02-10T05:57:34;26.80;;;14.80;;
24335;SDS011;33098;52.400;16.880;2023-02-10T06:00:02;22.20;;;13.80;;
24335;SDS011;33098;52.400;16.880;2023-02-10T06:02:38;23.40;;;12.50;;
24335;SDS011;33098;52.400;16.880;2023-02-10T06:05:11;20.40;;;13.10;;
24335;SDS011;33098;52.400;16.880;2023-02-10T06:07:40;23.40;;;14.50;;
24335;SDS011;33098;52.400;16.880;2023-02-10T06:10:07;23.30;;;14.60;;
24335;SDS011;33098;52.400;16.880;2023-02-10T06:12:34;26.80;;;14.70;;
24335;SDS011;33098;52.400;16.880;2023-02-10T06:15:04;26.10;;;14.00;;
24335;SDS011;33098;52.400;16.880;2023-02-10T06:17:31;22.50;;;13.70;;
24335;SDS011;33098;52.400;16.880;2023-02-10T06:19:59;26.70;;;14.70;;
24335;SDS011;33098;52.400;16.880;2023-02-10T06:22:26;21.80;;;13.90;;
24335;SDS011;33098;52.400;16.880;2023-02-10T06:24:53;22.30;;;12.60;;
24335;SDS011;33098;52.400;16.880;2023-02-10T06:27:23;24.10;;;13.90;;
24335;SDS011;33098;52.400;16.880;2023-02-10T06:29:51;21.60;;;13.40;;
24335;SDS011;33098;52.400;16.880;2023-02-10T06:32:18;23.70;;;13.60;;
24335;SDS011;33098;52.400;16.880;2023-02-10T06:34:47;24.20;;;13.20;;
24335;SDS011;33098;52.400;16.880;2023-02-10T06:37:17;24.50;;;14.10;;
24335;SDS011;33098;52.400;16.880;2023-02-10T06:39:45;26.80;;;14.80;;
24335;SDS011;33098;52.400;16.880;2023-02-10T06:42:14;25.80;;;14.70;;
24335;SDS011;33098;52.400;16.880;2023-02-10T06:44:44;25.30;;;14.50;;
24335;SDS011;33098;52.400;16.880;2023-02-10T06:47:12;24.30;;;14.20;;
24335;SDS011;33098;52.400;16.880;2023-02-10T06:49:39;27.20;;;14.90;;
24335;SDS011;33098;52.400;16.880;2023-02-10T06:52:06;26.20;;;14.80;;
24335;SDS011;33098;52.400;16.880;2023-02-10T06:54:33;27.60;;;15.40;;
24335;SDS011;33098;52.400;16.880;2023-02-10T06:57:03;24.10;;;13.80;;
24335;SDS011;33098;52.400;16.880;2023-02-10T06:59:31;23.60;;;14.00;;
24335;SDS011;33098;52.400;16.880;2023-02-10T07:01:58;24.50;;;14.40;;
24335;SDS011;33098;52.400;16.880;2023-02-10T07:04:30;25.80;;;14.90;;
24335;SDS011;33098;52.400;16.880;2023-02-10T07:06:57;27.80;;;15.80;;
24335;SDS011;33098;52.400;16.880;2023-02-10T07:09:24;26.80;;;13.60;;
24335;SDS011;33098;52.400;16.880;2023-02-10T07:11:51;26.70;;;16.40;;
24335;SDS011;33098;52.400;16.880;2023-02-10T07:14:18;24.70;;;14.70;;
24335;SDS011;33098;52.400;16.880;2023-02-10T07:16:47;26.80;;;15.20;;
24335;SDS011;33098;52.400;16.880;2023-02-10T07:19:14;26.70;;;14.50;;
24335;SDS011;33098;52.400;16.880;2023-02-10T07:21:42;29.20;;;16.10;;
24335;SDS011;33098;52.400;16.880;2023-02-10T07:24:09;26.50;;;15.60;;
24335;SDS011;33098;52.400;16.880;2023-02-10T07:26:36;31.90;;;16.30;;
24335;SDS011;33098;52.400;16.880;2023-02-10T07:29:04;25.80;;;14.40;;
24335;SDS011;33098;52.400;16.880;2023-02-10T07:31:32;27.30;;;15.90;;
24335;SDS011;33098;52.400;16.880;2023-02-10T07:34:01;24.60;;;14.30;;
24335;SDS011;33098;52.400;16.880;2023-02-10T07:36:32;27.30;;;15.50;;
24335;SDS011;33098;52.400;16.880;2023-02-10T07:38:58;29.20;;;16.40;;
24335;SDS011;33098;52.400;16.880;2023-02-10T07:41:32;29.60;;;16.50;;
24335;SDS011;33098;52.400;16.880;2023-02-10T07:43:58;26.80;;;15.60;;
24335;SDS011;33098;52.400;16.880;2023-02-10T07:46:25;28.30;;;16.50;;
24335;SDS011;33098;52.400;16.880;2023-02-10T07:48:57;30.80;;;16.80;;
24335;SDS011;33098;52.400;16.880;2023-02-10T07:51:24;28.40;;;16.10;;
24335;SDS011;33098;52.400;16.880;2023-02-10T07:53:51;32.60;;;17.40;;
24335;SDS011;33098;52.400;16.880;2023-02-10T07:56:22;29.50;;;17.70;;
24335;SDS011;33098;52.400;16.880;2023-02-10T07:58:54;33.10;;;18.20;;
24335;SDS011;33098;52.400;16.880;2023-02-10T08:01:22;34.70;;;19.20;;
24335;SDS011;33098;52.400;16.880;2023-02-10T08:03:52;35.20;;;20.00;;
24335;SDS011;33098;52.400;16.880;2023-02-10T08:06:25;33.50;;;16.80;;
24335;SDS011;33098;52.400;16.880;2023-02-10T08:08:53;31.00;;;17.50;;
24335;SDS011;33098;52.400;16.880;2023-02-10T08:11:21;29.30;;;16.40;;
24335;SDS011;33098;52.400;16.880;2023-02-10T08:13:51;36.20;;;18.90;;
24335;SDS011;33098;52.400;16.880;2023-02-10T08:16:19;37.90;;;21.30;;
24335;SDS011;33098;52.400;16.880;2023-02-10T08:18:50;48.00;;;22.30;;
24335;SDS011;33098;52.400;16.880;2023-02-10T08:21:23;57.70;;;26.60;;
24335;SDS011;33098;52.400;16.880;2023-02-10T08:23:52;45.10;;;24.90;;
24335;SDS011;33098;52.400;16.880;2023-02-10T08:26:25;37.40;;;21.50;;
24335;SDS011;33098;52.400;16.880;2023-02-10T08:28:54;32.60;;;18.80;;
24335;SDS011;33098;52.400;16.880;2023-02-10T08:31:23;28.50;;;16.90;;
24335;SDS011;33098;52.400;16.880;2023-02-10T08:33:56;37.40;;;17.50;;
24335;SDS011;33098;52.400;16.880;2023-02-10T08:36:26;34.10;;;17.30;;
24335;SDS011;33098;52.400;16.880;2023-02-10T08:38:59;30.20;;;17.10;;
24335;SDS011;33098;52.400;16.880;2023-02-10T08:43:59;31.00;;;17.80;;
24335;SDS011;33098;52.400;16.880;2023-02-10T08:46:30;29.90;;;16.60;;
24335;SDS011;33098;52.400;16.880;2023-02-10T08:48:58;29.50;;;16.80;;
24335;SDS011;33098;52.400;16.880;2023-02-10T08:51:28;31.90;;;17.00;;
24335;SDS011;33098;52.400;16.880;2023-02-10T08:54:05;31.40;;;16.40;;
24335;SDS011;33098;52.400;16.880;2023-02-10T08:56:33;29.00;;;16.20;;
24335;SDS011;33098;52.400;16.880;2023-02-10T08:59:03;29.70;;;16.40;;
24335;SDS011;33098;52.400;16.880;2023-02-10T09:01:36;35.90;;;17.10;;
24335;SDS011;33098;52.400;16.880;2023-02-10T09:04:04;32.90;;;17.80;;
24335;SDS011;33098;52.400;16.880;2023-02-10T09:06:36;30.30;;;17.30;;
24335;SDS011;33098;52.400;16.880;2023-02-10T09:09:09;32.80;;;17.00;;
24335;SDS011;33098;52.400;16.880;2023-02-10T09:11:41;28.50;;;16.70;;
24335;SDS011;33098;52.400;16.880;2023-02-10T09:14:14;27.10;;;15.40;;
24335;SDS011;33098;52.400;16.880;2023-02-10T09:16:46;25.00;;;15.10;;
24335;SDS011;33098;52.400;16.880;2023-02-10T09:19:15;30.20;;;17.90;;
24335;SDS011;33098;52.400;16.880;2023-02-10T09:21:42;31.90;;;15.60;;
24335;SDS011;33098;52.400;16.880;2023-02-10T09:24:09;28.60;;;16.50;;
24335;SDS011;33098;52.400;16.880;2023-02-10T09:26:36;32.30;;;16.40;;
24335;SDS011;33098;52.400;16.880;2023-02-10T09:29:04;30.00;;;16.70;;
24335;SDS011;33098;52.400;16.880;2023-02-10T09:31:32;31.40;;;16.80;;
24335;SDS011;33098;52.400;16.880;2023-02-10T09:34:02;29.80;;;17.70;;
24335;SDS011;33098;52.400;16.880;2023-02-10T09:36:31;29.20;;;15.90;;
24335;SDS011;33098;52.400;16.880;2023-02-10T09:38:59;28.80;;;16.10;;
24335;SDS011;33098;52.400;16.880;2023-02-10T09:50:06;33.50;;;17.10;;
24335;SDS011;33098;52.400;16.880;2023-02-10T09:53:08;35.40;;;17.70;;
24335;SDS011;33098;52.400;16.880;2023-02-10T09:55:57;32.30;;;15.30;;
24335;SDS011;33098;52.400;16.880;2023-02-10T09:58:31;30.20;;;16.10;;
24335;SDS011;33098;52.400;16.880;2023-02-10T10:03:45;42.60;;;17.70;;
24335;SDS011;33098;52.400;16.880;2023-02-10T10:06:29;46.60;;;19.70;;
24335;SDS011;33098;52.400;16.880;2023-02-10T10:11:41;47.80;;;19.80;;
24335;SDS011;33098;52.400;16.880;2023-02-10T10:14:19;44.90;;;18.40;;
24335;SDS011;33098;52.400;16.880;2023-02-10T10:25:39;32.00;;;17.90;;
24335;SDS011;33098;52.400;16.880;2023-02-10T10:33:52;31.30;;;18.30;;
24335;SDS011;33098;52.400;16.880;2023-02-10T10:42:05;32.50;;;18.20;;
24335;SDS011;33098;52.400;16.880;2023-02-10T10:44:45;30.90;;;17.10;;
24335;SDS011;33098;52.400;16.880;2023-02-10T10:49:50;30.10;;;16.80;;
24335;SDS011;33098;52.400;16.880;2023-02-10T10:52:31;31.90;;;16.90;;
24335;SDS011;33098;52.400;16.880;2023-02-10T10:55:10;31.40;;;16.60;;
24335;SDS011;33098;52.400;16.880;2023-02-10T10:57:46;36.40;;;18.40;;
24335;SDS011;33098;52.400;16.880;2023-02-10T11:00:24;31.50;;;18.40;;
24335;SDS011;33098;52.400;16.880;2023-02-10T11:03:04;33.40;;;18.10;;
24335;SDS011;33098;52.400;16.880;2023-02-10T11:05:55;30.10;;;17.10;;
24335;SDS011;33098;52.400;16.880;2023-02-10T11:08:55;33.10;;;18.20;;
24335;SDS011;33098;52.400;16.880;2023-02-10T11:11:34;35.70;;;18.60;;
24335;SDS011;33098;52.400;16.880;2023-02-10T11:14:17;33.50;;;17.50;;
24335;SDS011;33098;52.400;16.880;2023-02-10T11:16:50;32.70;;;17.60;;
24335;SDS011;33098;52.400;16.880;2023-02-10T11:19:23;33.90;;;17.80;;
24335;SDS011;33098;52.400;16.880;2023-02-10T11:21:52;33.60;;;16.30;;
24335;SDS011;33098;52.400;16.880;2023-02-10T11:24:21;38.00;;;18.10;;
24335;SDS011;33098;52.400;16.880;2023-02-10T11:26:59;46.40;;;21.40;;
24335;SDS011;33098;52.400;16.880;2023-02-10T11:29:53;32.90;;;17.50;;
24335;SDS011;33098;52.400;16.880;2023-02-10T11:32:23;32.20;;;18.60;;
24335;SDS011;33098;52.400;16.880;2023-02-10T11:35:04;33.10;;;18.20;;
24335;SDS011;33098;52.400;16.880;2023-02-10T11:37:43;37.30;;;20.10;;
24335;SDS011;33098;52.400;16.880;2023-02-10T11:40:27;37.60;;;20.20;;
24335;SDS011;33098;52.400;16.880;2023-02-10T11:43:06;30.40;;;16.60;;
24335;SDS011;33098;52.400;16.880;2023-02-10T11:45:49;36.90;;;18.10;;
24335;SDS011;33098;52.400;16.880;2023-02-10T11:48:21;38.30;;;18.70;;
24335;SDS011;33098;52.400;16.880;2023-02-10T11:51:04;36.30;;;19.20;;
24335;SDS011;33098;52.400;16.880;2023-02-10T11:53:39;40.40;;;19.40;;
24335;SDS011;33098;52.400;16.880;2023-02-10T11:56:13;32.40;;;17.00;;
24335;SDS011;33098;52.400;16.880;2023-02-10T11:59:03;38.10;;;19.90;;
24335;SDS011;33098;52.400;16.880;2023-02-10T12:01:57;35.90;;;17.40;;
24335;SDS011;33098;52.400;16.880;2023-02-10T12:04:34;42.90;;;20.10;;
24335;SDS011;33098;52.400;16.880;2023-02-10T12:10:04;32.80;;;17.70;;
24335;SDS011;33098;52.400;16.880;2023-02-10T12:12:44;40.30;;;20.80;;
24335;SDS011;33098;52.400;16.880;2023-02-10T12:18:12;32.30;;;17.80;;
24335;SDS011;33098;52.400;16.880;2023-02-10T12:20:44;35.70;;;20.40;;
24335;SDS011;33098;52.400;16.880;2023-02-10T12:26:44;38.70;;;20.30;;
24335;SDS011;33098;52.400;16.880;2023-02-10T12:32:03;35.70;;;20.80;;
24335;SDS011;33098;52.400;16.880;2023-02-10T12:35:04;37.40;;;19.70;;
24335;SDS011;33098;52.400;16.880;2023-02-10T12:45:54;39.40;;;20.10;;
24335;SDS011;33098;52.400;16.880;2023-02-10T12:48:28;36.90;;;19.50;;
24335;SDS011;33098;52.400;16.880;2023-02-10T12:54:13;35.90;;;20.40;;
24335;SDS011;33098;52.400;16.880;2023-02-10T12:59:18;38.90;;;19.70;;
24335;SDS011;33098;52.400;16.880;2023-02-10T13:01:51;40.20;;;19.10;;
24335;SDS011;33098;52.400;16.880;2023-02-10T13:04:23;34.80;;;19.00;;
24335;SDS011;33098;52.400;16.880;2023-02-10T13:07:17;34.50;;;17.60;;
24335;SDS011;33098;52.400;16.880;2023-02-10T13:10:02;34.50;;;17.30;;
24335;SDS011;33098;52.400;16.880;2023-02-10T13:12:48;37.20;;;19.20;;
24335;SDS011;33098;52.400;16.880;2023-02-10T13:15:33;31.50;;;17.50;;
24335;SDS011;33098;52.400;16.880;2023-02-10T13:18:14;32.20;;;17.70;;
24335;SDS011;33098;52.400;16.880;2023-02-10T13:23:48;37.50;;;19.10;;
24335;SDS011;33098;52.400;16.880;2023-02-10T13:26:35;39.20;;;19.00;;
24335;SDS011;33098;52.400;16.880;2023-02-10T13:29:17;40.30;;;20.50;;
24335;SDS011;33098;52.400;16.880;2023-02-10T13:35:05;36.80;;;20.20;;
24335;SDS011;33098;52.400;16.880;2023-02-10T13:37:46;29.90;;;16.80;;
24335;SDS011;33098;52.400;16.880;2023-02-10T13:40:20;28.30;;;15.70;;
24335;SDS011;33098;52.400;16.880;2023-02-10T13:42:52;38.60;;;18.90;;
24335;SDS011;33098;52.400;16.880;2023-02-10T13:45:28;32.40;;;17.10;;
24335;SDS011;33098;52.400;16.880;2023-02-10T13:48:04;33.10;;;18.00;;
24335;SDS011;33098;52.400;16.880;2023-02-10T13:53:28;36.60;;;18.00;;
24335;SDS011;33098;52.400;16.880;2023-02-10T13:56:12;39.50;;;18.00;;
24335;SDS011;33098;52.400;16.880;2023-02-10T14:01:47;36.40;;;18.80;;
24335;SDS011;33098;52.400;16.880;2023-02-10T14:06:48;38.80;;;18.70;;
24335;SDS011;33098;52.400;16.880;2023-02-10T14:09:31;35.30;;;19.30;;
24335;SDS011;33098;52.400;16.880;2023-02-10T14:12:02;32.40;;;17.30;;
24335;SDS011;33098;52.400;16.880;2023-02-10T14:14:35;40.30;;;20.00;;
24335;SDS011;33098;52.400;16.880;2023-02-10T14:17:17;35.00;;;18.10;;
24335;SDS011;33098;52.400;16.880;2023-02-10T14:19:58;35.10;;;18.50;;
24335;SDS011;33098;52.400;16.880;2023-02-10T14:22:32;38.20;;;18.90;;
24335;SDS011;33098;52.400;16.880;2023-02-10T14:25:04;36.50;;;18.10;;
24335;SDS011;33098;52.400;16.880;2023-02-10T14:27:47;34.90;;;17.70;;
24335;SDS011;33098;52.400;16.880;2023-02-10T14:33:29;35.00;;;17.80;;
24335;SDS011;33098;52.400;16.880;2023-02-10T14:36:03;33.90;;;17.40;;
24335;SDS011;33098;52.400;16.880;2023-02-10T14:38:53;34.40;;;17.60;;
24335;SDS011;33098;52.400;16.880;2023-02-10T14:41:28;31.40;;;16.00;;
24335;SDS011;33098;52.400;16.880;2023-02-10T14:44:01;33.10;;;18.00;;
24335;SDS011;33098;52.400;16.880;2023-02-10T14:46:30;34.70;;;18.40;;
24335;SDS011;33098;52.400;16.880;2023-02-10T14:49:00;32.50;;;16.00;;
24335;SDS011;33098;52.400;16.880;2023-02-10T14:51:38;35.80;;;16.70;;
24335;SDS011;33098;52.400;16.880;2023-02-10T14:54:19;36.10;;;17.80;;
24335;SDS011;33098;52.400;16.880;2023-02-10T14:56:58;41.50;;;19.30;;
24335;SDS011;33098;52.400;16.880;2023-02-10T14:59:31;40.30;;;19.50;;
24335;SDS011;33098;52.400;16.880;2023-02-10T15:02:04;31.90;;;17.50;;
24335;SDS011;33098;52.400;16.880;2023-02-10T15:07:26;37.60;;;18.30;;
24335;SDS011;33098;52.400;16.880;2023-02-10T15:09:57;36.30;;;19.20;;
24335;SDS011;33098;52.400;16.880;2023-02-10T15:12:32;37.10;;;18.70;;
24335;SDS011;33098;52.400;16.880;2023-02-10T15:17:36;42.70;;;19.70;;
24335;SDS011;33098;52.400;16.880;2023-02-10T15:28:16;39.00;;;18.80;;
24335;SDS011;33098;52.400;16.880;2023-02-10T15:31:03;38.50;;;19.40;;
24335;SDS011;33098;52.400;16.880;2023-02-10T15:33:38;39.50;;;19.00;;
24335;SDS011;33098;52.400;16.880;2023-02-10T15:41:31;36.30;;;18.00;;
24335;SDS011;33098;52.400;16.880;2023-02-10T15:44:26;37.30;;;18.40;;
24335;SDS011;33098;52.400;16.880;2023-02-10T15:49:46;43.10;;;19.00;;
24335;SDS011;33098;52.400;16.880;2023-02-10T15:52:28;21.90;;;12.00;;
24335;SDS011;33098;52.400;16.880;2023-02-10T15:55:04;36.60;;;18.10;;
24335;SDS011;33098;52.400;16.880;2023-02-10T15:57:36;36.00;;;18.30;;
24335;SDS011;33098;52.400;16.880;2023-02-10T16:00:06;34.80;;;17.00;;
24335;SDS011;33098;52.400;16.880;2023-02-10T16:02:50;34.50;;;17.50;;
24335;SDS011;33098;52.400;16.880;2023-02-10T16:05:19;34.20;;;17.90;;
24335;SDS011;33098;52.400;16.880;2023-02-10T16:07:51;32.70;;;18.30;;
24335;SDS011;33098;52.400;16.880;2023-02-10T16:10:25;34.30;;;17.40;;
24335;SDS011;33098;52.400;16.880;2023-02-10T16:12:52;36.60;;;18.90;;
24335;SDS011;33098;52.400;16.880;2023-02-10T16:15:23;39.50;;;19.50;;
24335;SDS011;33098;52.400;16.880;2023-02-10T16:17:53;37.00;;;18.00;;
24335;SDS011;33098;52.400;16.880;2023-02-10T16:22:55;37.60;;;19.70;;
24335;SDS011;33098;52.400;16.880;2023-02-10T16:25:24;37.70;;;19.20;;
24335;SDS011;33098;52.400;16.880;2023-02-10T16:27:55;45.20;;;20.00;;
24335;SDS011;33098;52.400;16.880;2023-02-10T16:30:26;42.10;;;19.70;;
24335;SDS011;33098;52.400;16.880;2023-02-10T16:32:54;41.20;;;19.40;;
24335;SDS011;33098;52.400;16.880;2023-02-10T16:35:25;36.80;;;19.10;;
24335;SDS011;33098;52.400;16.880;2023-02-10T16:38:08;39.70;;;18.90;;
24335;SDS011;33098;52.400;16.880;2023-02-10T16:40:36;38.20;;;19.50;;
24335;SDS011;33098;52.400;16.880;2023-02-10T16:43:06;41.60;;;19.80;;
24335;SDS011;33098;52.400;16.880;2023-02-10T16:45:34;42.50;;;20.90;;
24335;SDS011;33098;52.400;16.880;2023-02-10T16:48:04;38.80;;;19.60;;
24335;SDS011;33098;52.400;16.880;2023-02-10T16:50:34;35.80;;;18.50;;
24335;SDS011;33098;52.400;16.880;2023-02-10T16:53:09;37.00;;;19.60;;